サイパン国際空港の過去48時間の天気

サイパン国際空港 (Saipan Island, Saipan International Airport)

現在時刻: 10/24 19:12 ChST (10/24 09:12 UTC) 以下の時間は現地時間です。

過去48時間のMETAR気象情報
時間 風向 風速(m/s) 視程 気温(℃) 湿度(%) 気圧(hPa) 天気現象
24 18:54 静穏 0 10km以上 27.2 85 1013.8
24 17:54 3 10km以上 27.2 88 1013.1
24 16:54 東南東 3 10km以上 27.2 88 1012.6
24 15:54 3 10km以上 26.7 90 1012.2 弱い雨
24 15:45 5 10km以上 26.7 90 1010 弱い雨
24 14:54 東南東 4 10km以上 30 80 1011.9
24 13:54 東南東 5 10km以上 28.3 85 1012.4
24 12:54 南東 5 10km以上 31.7 70 1012.6
24 11:54 東南東 5 10km以上 31.7 68 1013.2
24 10:54 6 10km以上 30.6 75 1013.9
24 09:54 東南東 7 10km以上 30.6 75 1015
24 08:54 東南東 5 10km以上 30.6 72 1014.9
24 07:54 東南東 4 10km以上 29.4 80 1014.7
24 06:54 東南東 5 10km以上 27.8 85 1014.2
24 05:54 東南東 4 10km以上 27.2 88 1013.6
24 04:54 東南東 5 10km以上 27.8 88 1013
24 03:54 東南東 5 10km以上 27.2 88 1012.7
24 02:54 東南東 5 10km以上 27.2 88 1012.7
24 01:54 東南東 4 10km以上 27.2 91 1012.8
24 00:54 東南東 5 10km以上 27.8 85 1013.3
23 23:54 東南東 5 10km以上 27.2 85 1013.7 弱い雨
23 22:54 東南東 5 10km以上 27.8 85 1014
23 21:54 4 10km以上 27.2 88 1014.4
23 20:54 東南東 3 10km以上 26.7 90 1013.9
23 19:54 4 10km以上 26.7 90 1013.7
23 18:54 4 10km以上 26.7 90 1013
23 17:54 4 10km以上 26.7 90 1012.7
23 16:54 東南東 3 10km以上 27.8 88 1012
23 15:54 4 10km以上 27.2 88 1011.6
23 14:54 4 10km以上 26.7 90 1011.6 弱い雨
23 13:54 北東 4 10km以上 27.2 88 1011.8
23 12:54 北東 3 10km以上 26.1 94 1011.8 弱い雨
23 12:31 4 6450m 25.6 93 1011 弱い雨 もや
23 12:20 東南東 5 3200m 25 94 1011 雨 もや
23 12:00 東南東 7 3200m 25 96 1011 強い雨 もや
23 11:54 南南東 6 6450m 25.6 93 1013.1 雨 もや
23 10:54 4 10km以上 26.7 94 1013.6 弱い雨 もや
23 10:08 北東 6 10km以上 27.2 91 1012 強い雨
23 09:54 4 10km以上 28.9 82 1013.8
23 08:54 東南東 4 10km以上 27.8 88 1014.1
23 07:54 東北東 5 10km以上 27.8 90 1013.9 弱い雨
23 06:54 4 10km以上 27.8 82 1013.3
23 05:54 4 10km以上 27.2 88 1012.7
23 04:54 3 10km以上 26.7 87 1012.2
23 03:54 4 10km以上 27.8 82 1012.3
23 02:54 3 10km以上 27.2 85 1012.4
23 01:54 3 10km以上 27.2 88 1012.7
23 00:54 3 10km以上 27.2 88 1013.2
22 23:54 3 10km以上 27.2 85 1013.6
22 22:54 北北東 2 10km以上 27.2 88 1014.2
22 21:54 北東 3 10km以上 27.2 91 1014.3
22 20:54 北東 2 10km以上 27.2 91 1014.4
22 19:54 東北東 2 10km以上 27.2 88 1013.9
PGSN 240854Z 00000KT 10SM SCT027 BKN080 27/24 A2988 RMK AO2 RAB44E53 SLP138 P0000 60000 T02720244 53016 $
PGSN 240754Z 08006KT 10SM SCT019 SCT026 27/25 A2986 RMK AO2 SLP131 T02720250 $
PGSN 240654Z 11006KT 10SM SCT026 SCT070 27/25 A2984 RMK AO2 RAE01 SLP126 P0000 T02720250 $
PGSN 240554Z 09006KT 10SM -RA SCT022 SCT046 27/25 A2983 RMK AO2 WSHFT 0525 RAB31 SLP122 P0000 60007 T02670250 10322 20267 55005 $
PGSN 240545Z 08009KT 10SM -RA FEW022 BKN040 BKN050 27/25 A2983 RMK AO2 WSHFT 0525 RAB31 P0000 T02670250 /
PGSN 240454Z 12008KT 10SM CLR 30/26 A2982 RMK AO2 SLP119 T03000261 $
PGSN 240354Z 12009KT 10SM SCT021 SCT031 BKN044 28/26 A2983 RMK AO2 RAB15E33 SLP124 P0007 T02830256 $
PGSN 240254Z 13010KT 10SM FEW020 32/26 A2984 RMK AO2 SLP126 T03170256 56023 $
PGSN 240154Z 11009KT 10SM FEW019 32/25 A2986 RMK AO2 SLP132 T03170250 $
PGSN 240054Z 10012KT 10SM FEW021 FEW026 31/26 A2988 RMK AO2 SLP139 T03060256 $
PGSN 232354Z 11013KT 10SM SCT022 SCT029 31/26 A2991 RMK AO2 RAB03E16 SLP150 P0000 60000 T03060256 10306 20272 51007 $
PGSN 232254Z 12009KT 10SM SCT032 31/25 A2991 RMK AO2 SLP149 T03060250 $
PGSN 232154Z 12008KT 10SM SCT022 29/26 A2990 RMK AO2 SLP147 T02940256 $
PGSN 232054Z 11009KT 10SM SCT022 28/25 A2989 RMK AO2 SLP142 T02780250 53015 $
PGSN 231954Z 11008KT 10SM SCT018 27/25 A2987 RMK AO2 SLP136 T02720250 $
PGSN 231854Z 11009KT 10SM CLR 28/26 A2985 RMK AO2 SLP130 T02780256 $
PGSN 231754Z 12009KT 10SM CLR 27/25 A2984 RMK AO2 SLP127 60001 T02720250 10278 20272 56006 $
PGSN 231654Z 11009KT 10SM FEW075 27/25 A2984 RMK AO2 RAB04E16 SLP127 P0000 T02720250 $
PGSN 231554Z 11008KT 10SM SCT018 27/26 A2985 RMK AO2 RAB26E36 SLP128 P0000 T02720256 $
PGSN 231454Z 11010KT 10SM FEW021 28/25 A2986 RMK AO2 RAE04 SLP133 P0000 60001 T02780250 56011 $
PGSN 231354Z 11010KT 10SM -RA FEW020 BKN110 27/24 A2987 RMK AO2 RAB03 SLP137 P0001 T02720244 402940244 $
PGSN 231254Z 11009KT 10SM FEW022 SCT029 28/25 A2988 RMK AO2 SLP140 T02780250 $
PGSN 231154Z 09007KT 10SM FEW018 27/25 A2989 RMK AO2 SLP144 70075 T02720250 10278 20267 51014 $
PGSN 231054Z 12006KT 10SM CLR 27/25 A2988 RMK AO2 SLP139 T02670250 $
PGSN 230954Z 10007KT 10SM CLR 27/25 A2987 RMK AO2 SLP137 T02670250 $
PGSN 230854Z 10008KT 10SM FEW019 SCT027 27/25 A2985 RMK AO2 SLP130 T02670250 51014 $
PGSN 230754Z 08007KT 10SM CLR 27/25 A2984 RMK AO2 SLP127 T02670250 $
PGSN 230654Z 12005KT 10SM FEW048 SCT065 28/26 A2982 RMK AO2 SLP120 T02780256 $
PGSN 230554Z 08007KT 10SM FEW017 SCT030 27/25 A2981 RMK AO2 RAE03B23E33 SLP116 P0000 60058 T02720250 10289 20244 57003 $
PGSN 230454Z 09008KT 8SM -RA FEW013 SCT019 BKN031 27/25 A2981 RMK AO2 RAB0358E26B51 SLP116 P0000 T02670250 $
PGSN 230354Z 05008KT 10SM FEW022 SCT050 BKN090 27/25 A2982 RMK AO2 RAE39 SLP118 P0000 T02720250 $
PGSN 230254Z 05006KT 10SM -RA FEW016 SCT060 BKN080 26/25 A2982 RMK AO2 SLP118 P0040 60058 T02610250 58020
PGSN 230231Z 10007KT 4SM -RA BR SCT010CB BKN030 OVC060 26/24 A2984 RMK AO2 P0039 T02560244
PGSN 230220Z 11010KT 2SM RA BR SCT006 OVC032 25/24 A2985 RMK AO2 P0034 T02500239
PGSN 230200Z 12014G19KT 2SM +RA BR FEW004 BKN024 OVC034 25/24 A2986 RMK AO2 P0004 T02500244
PGSN 230154Z 15012G19KT 4SM RA BR FEW010CB BKN028 OVC036 26/24 A2986 RMK AO2 SLP131 P0003 T02560244
PGSN 230054Z 09007KT 6SM -RA BR SCT013 BKN042 OVC080 27/26 A2987 RMK AO2 RAB2356 SLP136 P0015 T02670256
PGSN 230008Z 05011G16KT 10SM +RA SCT011 BKN025CB 27/26 A2988 RMK AO2 RAB2356 CB OVHD MOV NW P0004 T02720256
PGSN 222354Z 08008KT 10SM FEW016 SCT034 BKN050 29/26 A2988 RMK AO2 SLP138 60017 T02890256 10294 20261 50005
PGSN 222254Z 12008KT 10SM SCT020CB SCT036 BKN085 28/26 A2989 RMK AO2 RAE2158B14E52 SLP141 VCSH SE-SW CB VC SE-SW MOV W P0017 T02780256
PGSN 222154Z 07010KT 10SM -RA SCT018CB BKN080 28/26 A2988 RMK AO2 RAB42 SLP139 CB NE-OHD-W MOV W P0000 T02780261 $
PGSN 222054Z 08008KT 10SM SCT023 SCT031 BKN049 28/24 A2986 RMK AO2 SLP133 60000 T02780244 53010 $
PGSN 221954Z 08008KT 10SM FEW019 SCT024 27/25 A2984 RMK AO2 SLP127 T02720250 $
PGSN 221854Z 08006KT 10SM FEW021 27/24 A2983 RMK AO2 RAB1758E39 SLP122 P0000 T02670244 $
PGSN 221754Z 09008KT 10SM FEW022 28/24 A2983 RMK AO2 SLP123 T02780244 10278 20267 56008 $
PGSN 221654Z 08006KT 10SM CLR 27/24 A2984 RMK AO2 SLP124 T02720244 $
PGSN 221554Z 08006KT 10SM FEW019 FEW024 27/25 A2984 RMK AO2 SLP127 T02720250 $
PGSN 221454Z 09005KT 10SM FEW022 27/25 A2986 RMK AO2 SLP132 T02720250 58011 $
PGSN 221354Z 09006KT 10SM CLR 27/24 A2987 RMK AO2 SLP136 T02720244 403060256 $
PGSN 221254Z 03003KT 10SM FEW023 SCT031 SCT042 27/25 A2989 RMK AO2 SLP142 T02720250 $
PGSN 221154Z 04005KT 10SM FEW019 SCT025 SCT036 27/26 A2989 RMK AO2 SLP143 70029 T02720256 10294 20272 50009 $
PGSN 221054Z 05004KT 10SM FEW020 BKN060 27/26 A2989 RMK AO2 SLP144 T02720256 $
PGSN 220954Z 06003KT 10SM CLR 27/25 A2988 RMK AO2 SLP139 T02720250 $